Asherton, Texas
Current Conditions -  °F | °C
As of 4:35 PM on Wednesday 22 Oct 2014 (Local Time) from KCZT Reporting Station
Broken Clouds Broken Clouds  
Wind Chill: 82°   Ceiling: 11000
Heat Index: 82°   Visibility: 10mi
Dew Point: 59°   Wind: 3mph
Humidity: 45%   Direction: 120°ESE
Pressure: 30"   Gusts: NA
Location:  28.44°N, 99.76°W
Report Text: KCZT 222135Z AUTO 12003KT 10SM SCT085 BKN110 28/15 A3000 RMK AO2
Loading
Personal Weather Stations






























Interactive Weather Map
Tropical Storm Tracking
New forecast layout! Learn more

10-Day Weather Forecast

Advertisements
Track Severe Weather on mobile